createdAt,value
2022-11-23T01:48:28.087Z,8.27
2022-11-23T02:08:28.055Z,7.98
2022-11-23T02:28:28.030Z,8.01
2022-11-23T05:28:39.944Z,7.77
2022-11-23T05:48:27.776Z,7.73
2022-11-23T06:28:27.719Z,7.92
2022-11-23T06:48:27.713Z,7.93
2022-11-23T07:08:27.673Z,7.96
2022-11-23T07:28:27.649Z,7.97
2022-11-23T07:48:30.762Z,8.09
2022-11-23T08:08:27.583Z,8.24
2022-11-23T08:28:27.558Z,8.54
2022-11-23T09:08:27.507Z,9.04
2022-11-23T09:28:27.491Z,9.28
2022-11-23T09:48:27.466Z,9.52
2022-11-23T10:08:27.465Z,9.74
2022-11-23T10:28:27.418Z,10.05
2022-11-23T10:48:27.370Z,10.41
2022-11-23T11:08:27.341Z,10.9
2022-11-23T11:48:27.283Z,11.45
2022-11-23T12:08:27.255Z,11.61
2022-11-23T12:28:27.247Z,11.49
2022-11-23T12:48:27.206Z,11.2
2022-11-23T13:08:27.276Z,11.29
2022-11-23T13:28:27.144Z,11.49
2022-11-23T15:08:27.011Z,9.33
2022-11-23T15:28:27.009Z,9.21
2022-11-23T15:48:26.939Z,9.29
2022-11-23T16:28:26.896Z,9.05
2022-11-23T16:48:26.866Z,9.11
2022-11-23T17:08:26.827Z,8.81
2022-11-23T17:28:26.799Z,8.2
2022-11-23T17:48:26.797Z,7.82
2022-11-23T18:28:26.747Z,7.63
2022-11-23T19:28:26.666Z,7.63
2022-11-23T19:48:26.634Z,7.68
2022-11-23T20:08:26.595Z,7.7
2022-11-23T20:28:26.577Z,7.9
2022-11-23T20:48:26.549Z,8.03
2022-11-23T21:08:29.067Z,8.21
2022-11-23T21:28:26.496Z,8.08
2022-11-23T21:48:26.477Z,8.08
2022-11-23T22:08:29.123Z,7.95
2022-11-23T22:28:26.440Z,8.21
2022-11-23T22:48:26.395Z,8.4
2022-11-23T23:08:26.373Z,8.67
2022-11-23T23:28:26.353Z,8.7
2022-11-23T23:48:26.318Z,9.09
